createdAt,value
2017-12-04T00:02:25.389Z,19.33
2017-12-04T00:04:53.638Z,20.50
2017-12-04T00:07:21.914Z,19.50
2017-12-04T00:09:50.938Z,21.02
2017-12-04T00:12:19.234Z,19.87
2017-12-04T00:14:47.494Z,19.05
2017-12-04T00:17:15.777Z,20.10
2017-12-04T00:19:44.039Z,19.15
2017-12-04T00:22:12.310Z,19.80
2017-12-04T00:24:40.592Z,19.17
2017-12-04T00:27:09.739Z,20.70
2017-12-04T00:29:37.995Z,19.40
2017-12-04T00:32:06.303Z,20.23
2017-12-04T00:34:34.584Z,19.90
2017-12-04T00:37:05.035Z,19.65
2017-12-04T00:39:34.169Z,19.27
2017-12-04T00:42:02.507Z,20.25
2017-12-04T00:44:30.821Z,17.10
2017-12-04T00:46:59.196Z,18.60
2017-12-04T00:49:27.435Z,17.73
2017-12-04T00:51:55.708Z,17.60
2017-12-04T00:54:23.971Z,18.33
2017-12-04T00:56:52.235Z,21.02
2017-12-04T00:59:21.261Z,18.83
2017-12-04T01:01:49.533Z,18.70
2017-12-04T01:04:17.843Z,17.60
2017-12-04T01:06:46.099Z,16.15
2017-12-04T01:09:14.366Z,17.80
2017-12-04T01:11:42.618Z,16.10
2017-12-04T01:14:11.670Z,17.92
2017-12-04T01:16:40.719Z,16.75
2017-12-04T01:19:09.806Z,18.75
2017-12-04T01:21:38.068Z,16.45
2017-12-04T01:24:06.334Z,17.42
2017-12-04T01:26:34.590Z,17.98
2017-12-04T01:29:03.725Z,17.40
2017-12-04T01:31:31.990Z,17.25
2017-12-04T01:34:00.267Z,16.62
2017-12-04T01:36:28.530Z,18.27
2017-12-04T01:38:57.563Z,16.92
2017-12-04T01:41:25.822Z,17.35
2017-12-04T01:43:54.154Z,16.98
2017-12-04T01:46:22.408Z,17.25
2017-12-04T01:48:50.677Z,17.40
2017-12-04T01:51:18.922Z,16.42
2017-12-04T01:53:47.964Z,17.30
2017-12-04T01:56:16.217Z,18.30
2017-12-04T01:58:44.527Z,16.65
2017-12-04T02:01:12.812Z,17.30
2017-12-04T02:03:41.086Z,15.20
2017-12-04T02:06:09.329Z,16.17
2017-12-04T02:08:37.609Z,15.27
2017-12-04T02:11:05.962Z,13.85
2017-12-04T02:13:34.316Z,16.92
2017-12-04T02:16:02.571Z,16.77
2017-12-04T02:18:31.807Z,15.52
2017-12-04T02:21:00.103Z,14.40
2017-12-04T02:23:28.354Z,15.95
2017-12-04T02:25:56.631Z,14.05
2017-12-04T02:28:24.922Z,14.27
2017-12-04T02:30:53.199Z,15.07
2017-12-04T02:33:21.527Z,15.88
2017-12-04T02:35:49.780Z,15.00
2017-12-04T02:38:18.035Z,15.00
2017-12-04T02:40:46.316Z,17.10
2017-12-04T02:43:14.598Z,12.75
2017-12-04T02:45:42.906Z,13.05
2017-12-04T02:48:11.146Z,14.63
2017-12-04T02:50:39.479Z,14.18
2017-12-04T02:53:07.747Z,13.88
2017-12-04T02:55:36.023Z,16.23
2017-12-04T02:58:04.287Z,14.02
2017-12-04T03:00:32.575Z,14.45
2017-12-04T03:03:00.831Z,13.55
2017-12-04T03:05:29.120Z,13.68
2017-12-04T03:07:57.374Z,14.18
2017-12-04T03:10:26.419Z,14.65
2017-12-04T03:12:54.669Z,13.90
2017-12-04T03:15:22.963Z,14.95
2017-12-04T03:17:51.229Z,16.40
2017-12-04T03:20:19.515Z,14.10
2017-12-04T03:22:47.835Z,14.20
2017-12-04T03:25:16.089Z,14.55
2017-12-04T03:27:44.356Z,13.77
2017-12-04T03:30:12.671Z,14.60
2017-12-04T03:32:40.934Z,13.48
2017-12-04T03:35:09.248Z,14.38
2017-12-04T03:37:37.643Z,14.35
2017-12-04T03:40:06.029Z,13.07
2017-12-04T03:42:34.383Z,15.85
2017-12-04T03:45:02.763Z,13.23
2017-12-04T03:47:31.346Z,15.23
2017-12-04T03:49:59.647Z,13.70
2017-12-04T03:52:28.032Z,15.55
2017-12-04T03:54:56.287Z,15.25
2017-12-04T03:57:24.566Z,16.55
2017-12-04T03:59:52.815Z,14.63
2017-12-04T04:02:21.116Z,15.27
2017-12-04T04:04:49.449Z,14.60
2017-12-04T04:07:17.694Z,12.90
2017-12-04T04:09:45.955Z,13.18
2017-12-04T04:12:14.227Z,15.23
2017-12-04T04:14:42.484Z,13.88
2017-12-04T04:17:11.673Z,13.20
2017-12-04T04:19:40.822Z,16.00
2017-12-04T04:22:09.098Z,14.82
2017-12-04T04:24:37.364Z,15.82
2017-12-04T04:27:05.674Z,15.18
2017-12-04T04:29:33.964Z,15.00
2017-12-04T04:32:02.234Z,14.80
2017-12-04T04:34:30.498Z,16.02
2017-12-04T04:36:58.753Z,15.35
2017-12-04T04:39:27.802Z,14.57
2017-12-04T04:41:56.059Z,15.40
2017-12-04T04:44:24.391Z,15.32
2017-12-04T04:46:52.651Z,14.75
2017-12-04T04:49:20.944Z,15.60
2017-12-04T04:51:49.198Z,16.02
2017-12-04T04:54:17.478Z,14.98
2017-12-04T04:56:45.784Z,15.55
2017-12-04T04:59:14.063Z,15.20
2017-12-04T05:01:42.323Z,14.57
2017-12-04T05:04:10.604Z,16.48
2017-12-04T05:06:38.902Z,14.87
2017-12-04T05:09:07.171Z,15.80
2017-12-04T05:11:35.425Z,13.73
2017-12-04T05:14:03.698Z,13.70
2017-12-04T05:16:32.722Z,15.30
2017-12-04T05:19:00.990Z,15.05
2017-12-04T05:21:29.254Z,15.73
2017-12-04T05:23:58.284Z,14.75
2017-12-04T05:26:26.814Z,14.40
2017-12-04T05:28:55.066Z,15.75
2017-12-04T05:31:23.321Z,13.73
2017-12-04T05:33:51.632Z,13.93
2017-12-04T05:36:20.082Z,14.85
2017-12-04T05:38:49.105Z,14.07
2017-12-04T05:41:17.398Z,13.75
2017-12-04T05:43:45.669Z,14.00
2017-12-04T05:46:13.936Z,13.23
2017-12-04T05:48:42.941Z,13.38
2017-12-04T05:51:11.281Z,14.20
2017-12-04T05:53:39.475Z,14.65
2017-12-04T05:56:07.776Z,14.80
2017-12-04T05:58:36.054Z,14.32
2017-12-04T06:01:04.333Z,14.93
2017-12-04T06:03:32.604Z,15.25
2017-12-04T06:06:01.049Z,14.70
2017-12-04T06:08:29.545Z,16.15
2017-12-04T06:10:57.839Z,13.65
2017-12-04T06:13:26.866Z,13.80
2017-12-04T06:15:55.140Z,16.00
2017-12-04T06:18:23.405Z,41.85
2017-12-04T06:20:52.446Z,15.93
2017-12-04T06:23:20.708Z,12.45
2017-12-04T06:25:48.986Z,13.77
2017-12-04T06:28:17.291Z,16.15
2017-12-04T06:30:45.595Z,14.80
2017-12-04T06:33:13.877Z,13.45
2017-12-04T06:35:42.156Z,12.98
2017-12-04T06:38:10.406Z,12.45
2017-12-04T06:40:38.694Z,13.00
2017-12-04T06:43:06.953Z,12.85
2017-12-04T06:45:35.245Z,12.35
2017-12-04T06:48:03.516Z,11.85
2017-12-04T06:50:31.786Z,13.27
2017-12-04T06:53:00.053Z,12.60
2017-12-04T06:55:29.097Z,12.23
2017-12-04T06:57:57.354Z,13.02
2017-12-04T07:00:25.631Z,11.50
2017-12-04T07:02:53.893Z,11.10
2017-12-04T07:05:22.176Z,12.02
2017-12-04T07:07:50.427Z,11.60
2017-12-04T07:10:18.692Z,13.27
2017-12-04T07:12:47.071Z,10.55
2017-12-04T07:15:15.328Z,13.93
2017-12-04T07:17:43.639Z,10.88
2017-12-04T07:20:12.001Z,11.68
2017-12-04T07:22:40.286Z,12.32
2017-12-04T07:25:08.546Z,12.55
2017-12-04T07:27:36.847Z,11.90
2017-12-04T07:30:05.177Z,10.98
2017-12-04T07:32:33.515Z,12.77
2017-12-04T07:35:01.995Z,11.73
2017-12-04T07:37:30.293Z,12.90
2017-12-04T07:39:58.545Z,12.13
2017-12-04T07:42:26.832Z,11.93
2017-12-04T07:44:55.131Z,11.60
2017-12-04T07:47:23.411Z,12.30
2017-12-04T07:49:51.686Z,11.32
2017-12-04T07:52:20.823Z,11.15
2017-12-04T07:54:49.163Z,13.18
2017-12-04T07:57:17.462Z,12.20
2017-12-04T07:59:45.709Z,11.90
2017-12-04T08:02:13.975Z,10.80
2017-12-04T08:04:42.233Z,10.77
2017-12-04T08:07:11.255Z,11.73
2017-12-04T08:09:39.527Z,11.40
2017-12-04T08:12:07.806Z,12.43
2017-12-04T08:14:36.823Z,10.80
2017-12-04T08:17:05.074Z,10.18
2017-12-04T08:19:33.350Z,11.88
2017-12-04T08:22:02.373Z,11.70
2017-12-04T08:24:30.682Z,9.63
2017-12-04T08:26:58.951Z,10.88
2017-12-04T08:29:27.220Z,12.00
2017-12-04T08:31:55.527Z,11.10
2017-12-04T08:34:23.798Z,11.70
2017-12-04T08:36:52.084Z,10.73
2017-12-04T08:39:20.342Z,11.43
2017-12-04T08:41:48.643Z,11.45
2017-12-04T08:44:16.912Z,11.45
2017-12-04T08:46:45.183Z,11.45
2017-12-04T08:49:13.444Z,12.13
2017-12-04T08:51:42.471Z,11.68
2017-12-04T08:54:10.775Z,11.45
2017-12-04T08:56:39.051Z,11.18
2017-12-04T08:59:07.759Z,11.35
2017-12-04T09:01:36.040Z,11.10
2017-12-04T09:04:04.784Z,11.93
2017-12-04T09:06:33.445Z,11.32
2017-12-04T09:09:01.944Z,10.80
2017-12-04T09:11:31.445Z,10.53
2017-12-04T09:13:59.772Z,10.85
2017-12-04T09:16:28.587Z,12.20
2017-12-04T09:18:56.881Z,11.48
2017-12-04T09:21:25.779Z,11.27
2017-12-04T09:23:54.031Z,11.55
2017-12-04T09:26:22.312Z,10.07
2017-12-04T09:28:50.574Z,11.73
2017-12-04T09:31:18.866Z,11.23
2017-12-04T09:33:47.182Z,10.38
2017-12-04T09:36:15.542Z,9.80
2017-12-04T09:38:43.810Z,10.75
2017-12-04T09:41:12.079Z,10.77
2017-12-04T09:43:40.351Z,13.70
2017-12-04T09:46:08.626Z,10.88
2017-12-04T09:48:37.667Z,11.07
2017-12-04T09:51:05.942Z,11.50
2017-12-04T09:53:34.209Z,11.60
2017-12-04T09:56:02.486Z,10.90
2017-12-04T09:58:30.747Z,9.50
2017-12-04T10:00:59.033Z,9.82
2017-12-04T10:03:27.502Z,10.63
2017-12-04T10:05:55.778Z,10.43
2017-12-04T10:08:24.801Z,10.60
2017-12-04T10:10:53.074Z,10.68
2017-12-04T10:13:21.398Z,12.25
2017-12-04T10:15:49.663Z,10.88
2017-12-04T10:18:17.909Z,10.30
2017-12-04T10:20:47.573Z,11.10
2017-12-04T10:23:15.838Z,11.82
2017-12-04T10:25:44.114Z,11.80
2017-12-04T10:28:12.406Z,11.82
2017-12-04T10:30:40.683Z,10.50
2017-12-04T10:33:08.942Z,11.23
2017-12-04T10:35:37.206Z,9.85
2017-12-04T10:38:06.251Z,10.30
2017-12-04T10:40:34.538Z,11.10
2017-12-04T10:43:02.804Z,10.48
2017-12-04T10:45:31.074Z,10.40
2017-12-04T10:47:59.361Z,10.80
2017-12-04T10:50:27.623Z,10.57
2017-12-04T10:52:56.655Z,9.93
2017-12-04T10:55:24.908Z,11.30
2017-12-04T10:57:54.030Z,10.48
2017-12-04T11:00:22.307Z,10.27
2017-12-04T11:02:50.587Z,9.38
2017-12-04T11:05:18.883Z,10.30
2017-12-04T11:07:47.146Z,10.15
2017-12-04T11:10:15.401Z,10.43
2017-12-04T11:12:43.682Z,9.85
2017-12-04T11:15:12.687Z,9.90
2017-12-04T11:17:40.981Z,10.55
2017-12-04T11:20:09.217Z,10.30
2017-12-04T11:22:38.246Z,9.57
2017-12-04T11:25:06.513Z,11.23
2017-12-04T11:27:35.588Z,9.25
2017-12-04T11:30:03.819Z,10.40
2017-12-04T11:32:32.089Z,10.13
2017-12-04T11:35:00.411Z,9.93
2017-12-04T11:37:28.688Z,9.23
2017-12-04T11:39:56.956Z,10.18
2017-12-04T11:42:25.472Z,9.23
2017-12-04T11:44:53.715Z,10.40
2017-12-04T11:47:21.991Z,10.25
2017-12-04T11:49:50.242Z,8.52
2017-12-04T11:52:18.565Z,9.45
2017-12-04T11:54:46.864Z,10.10
2017-12-04T11:57:15.115Z,10.70
2017-12-04T11:59:43.385Z,10.40
2017-12-04T12:02:11.651Z,10.27
2017-12-04T12:04:40.292Z,10.75
2017-12-04T12:07:08.988Z,10.80
2017-12-04T12:09:37.332Z,10.23
2017-12-04T12:12:05.588Z,10.70
2017-12-04T12:14:34.623Z,9.13
2017-12-04T12:17:02.875Z,9.90
2017-12-04T12:19:31.305Z,8.95
2017-12-04T12:21:59.562Z,9.80
2017-12-04T12:24:27.837Z,8.73
2017-12-04T12:26:56.146Z,9.20
2017-12-04T12:29:24.417Z,8.23
2017-12-04T12:31:52.681Z,8.77
2017-12-04T12:34:20.953Z,9.77
2017-12-04T12:36:49.215Z,9.05
2017-12-04T12:39:18.246Z,8.43
2017-12-04T12:41:46.503Z,9.20
2017-12-04T12:44:14.770Z,8.63
2017-12-04T12:46:43.831Z,10.00
2017-12-04T12:49:12.090Z,8.33
2017-12-04T12:51:40.507Z,9.60
2017-12-04T12:54:08.850Z,9.40
2017-12-04T12:56:37.891Z,8.70
2017-12-04T12:59:06.138Z,9.07
2017-12-04T13:01:34.410Z,8.87
2017-12-04T13:04:02.664Z,9.80
2017-12-04T13:06:31.692Z,8.87
2017-12-04T13:08:59.930Z,10.60
2017-12-04T13:11:28.987Z,8.75
2017-12-04T13:13:57.226Z,8.27
2017-12-04T13:16:25.490Z,10.30
2017-12-04T13:18:54.534Z,10.55
2017-12-04T13:21:22.795Z,8.43
2017-12-04T13:23:51.074Z,8.93
2017-12-04T13:26:19.370Z,9.10
2017-12-04T13:28:47.605Z,9.77
2017-12-04T13:31:16.668Z,8.93
2017-12-04T13:33:56.925Z,8.40
2017-12-04T13:36:39.934Z,8.00
2017-12-04T13:39:08.190Z,9.57
2017-12-04T13:41:36.514Z,9.13
2017-12-04T13:44:04.757Z,8.90
2017-12-04T13:46:33.107Z,9.27
2017-12-04T13:49:01.347Z,7.90
2017-12-04T13:51:29.653Z,8.35
2017-12-04T13:53:57.906Z,7.80
2017-12-04T13:56:26.418Z,9.40
2017-12-04T13:58:55.511Z,8.50
2017-12-04T14:01:23.786Z,9.00
2017-12-04T14:03:52.036Z,9.33
2017-12-04T14:06:20.298Z,9.37
2017-12-04T14:08:48.870Z,9.37
2017-12-04T14:11:17.902Z,9.13
2017-12-04T14:13:46.151Z,8.63
2017-12-04T14:16:15.163Z,8.90
2017-12-04T14:18:43.434Z,8.73
2017-12-04T14:21:12.444Z,9.63
2017-12-04T14:23:40.711Z,8.70
2017-12-04T14:26:09.747Z,8.83
2017-12-04T14:28:38.014Z,8.60
2017-12-04T14:31:06.302Z,8.00
2017-12-04T14:33:34.574Z,9.30
2017-12-04T14:36:02.846Z,9.90
2017-12-04T14:38:31.116Z,9.00
2017-12-04T14:41:00.163Z,8.50
2017-12-04T14:43:28.542Z,8.93
2017-12-04T14:45:56.799Z,9.20
2017-12-04T14:48:25.083Z,9.27
2017-12-04T14:50:53.322Z,9.33
2017-12-04T14:53:22.367Z,10.05
2017-12-04T14:55:50.626Z,9.70
2017-12-04T14:58:18.947Z,10.13
2017-12-04T15:00:47.235Z,9.97
2017-12-04T15:03:15.521Z,10.50
2017-12-04T15:05:43.791Z,11.43
2017-12-04T15:08:12.191Z,10.37
2017-12-04T15:10:40.416Z,9.87
2017-12-04T15:13:08.685Z,11.03
2017-12-04T15:15:37.709Z,10.03
2017-12-04T15:18:05.977Z,10.50
2017-12-04T15:20:35.032Z,10.40
2017-12-04T15:23:03.293Z,9.37
2017-12-04T15:25:31.542Z,10.03
2017-12-04T15:27:59.810Z,10.70
2017-12-04T15:30:28.103Z,10.38
2017-12-04T15:32:56.420Z,10.33
2017-12-04T15:35:24.788Z,8.93
2017-12-04T15:37:53.030Z,7.90
2017-12-04T15:40:22.083Z,9.50
2017-12-04T15:42:50.350Z,8.70
2017-12-04T15:45:18.609Z,8.97
2017-12-04T15:47:46.856Z,8.40
2017-12-04T15:50:15.110Z,8.60
2017-12-04T15:52:44.354Z,10.05
2017-12-04T15:55:13.401Z,9.20
2017-12-04T15:57:41.658Z,8.43
2017-12-04T16:00:09.913Z,8.60
2017-12-04T16:02:38.200Z,8.70
2017-12-04T16:05:07.333Z,7.80
2017-12-04T16:07:35.589Z,7.97
2017-12-04T16:10:04.693Z,7.60
2017-12-04T16:12:32.947Z,8.83
2017-12-04T16:15:01.259Z,9.10
2017-12-04T16:17:29.566Z,6.97
2017-12-04T16:19:57.828Z,8.37
2017-12-04T16:22:26.122Z,8.13
2017-12-04T16:24:54.415Z,9.17
2017-12-04T16:27:22.660Z,8.63
2017-12-04T16:29:50.930Z,9.20
2017-12-04T16:32:19.951Z,8.50
2017-12-04T16:34:48.220Z,7.87
2017-12-04T16:37:16.524Z,7.90
2017-12-04T16:39:44.826Z,7.70
2017-12-04T16:42:13.071Z,8.27
2017-12-04T16:44:41.342Z,8.87
2017-12-04T16:47:09.695Z,7.80
2017-12-04T16:49:38.029Z,7.47
2017-12-04T16:52:06.285Z,7.67
2017-12-04T16:54:35.316Z,8.40
2017-12-04T16:57:03.604Z,8.10
2017-12-04T16:59:31.864Z,8.23
2017-12-04T17:02:00.132Z,7.70
2017-12-04T17:04:28.681Z,8.18
2017-12-04T17:06:57.894Z,8.67
2017-12-04T17:09:26.263Z,7.03
2017-12-04T17:11:54.790Z,7.53
2017-12-04T17:14:23.832Z,7.00
2017-12-04T17:16:52.173Z,7.50
2017-12-04T17:19:20.736Z,7.10
2017-12-04T17:21:49.446Z,7.70
2017-12-04T17:24:18.107Z,8.27
2017-12-04T17:26:46.608Z,8.03
2017-12-04T17:29:14.932Z,8.07
2017-12-04T17:31:43.243Z,8.00
2017-12-04T17:34:11.510Z,7.83
2017-12-04T17:36:39.788Z,7.63
2017-12-04T17:39:08.069Z,8.33
2017-12-04T17:41:36.330Z,8.13
2017-12-04T17:44:05.351Z,8.13
2017-12-04T17:46:33.627Z,8.63
2017-12-04T17:49:01.894Z,7.97
2017-12-04T17:51:30.165Z,7.20
2017-12-04T17:54:01.300Z,9.60
2017-12-04T17:56:30.330Z,8.80
2017-12-04T17:58:58.586Z,9.38
2017-12-04T18:01:27.591Z,8.97
2017-12-04T18:03:56.133Z,7.80
2017-12-04T18:06:24.459Z,8.37
2017-12-04T18:08:53.586Z,9.50
2017-12-04T18:11:21.826Z,8.57
2017-12-04T18:13:50.860Z,8.83
2017-12-04T18:16:19.110Z,8.47
2017-12-04T18:18:48.184Z,8.07
2017-12-04T18:21:16.427Z,9.53
2017-12-04T18:23:44.674Z,9.23
2017-12-04T18:26:12.932Z,8.67
2017-12-04T18:28:41.942Z,9.07
2017-12-04T18:31:10.988Z,9.10
2017-12-04T18:33:39.239Z,8.83
2017-12-04T18:36:08.308Z,8.70
2017-12-04T18:38:37.354Z,9.57
2017-12-04T18:41:05.620Z,9.73
2017-12-04T18:43:33.874Z,10.40
2017-12-04T18:46:02.904Z,9.40
2017-12-04T18:48:31.223Z,10.83
2017-12-04T18:50:59.496Z,9.93
2017-12-04T18:53:27.750Z,10.30
2017-12-04T18:55:56.018Z,10.30
2017-12-04T18:58:24.311Z,9.30
2017-12-04T19:00:52.572Z,10.40
2017-12-04T19:03:21.586Z,10.53
2017-12-04T19:05:49.863Z,10.77
2017-12-04T19:08:18.108Z,10.67
2017-12-04T19:10:46.563Z,10.27
2017-12-04T19:13:14.834Z,10.73
2017-12-04T19:15:43.094Z,11.97
2017-12-04T19:18:11.531Z,10.03
2017-12-04T19:20:40.626Z,10.30
2017-12-04T19:23:09.672Z,12.33
2017-12-04T19:25:37.975Z,10.70
2017-12-04T19:28:07.142Z,10.97
2017-12-04T19:30:36.274Z,10.30
2017-12-04T19:33:04.536Z,11.40
2017-12-04T19:35:32.796Z,10.60
2017-12-04T19:38:01.860Z,10.53
2017-12-04T19:40:35.623Z,12.60
2017-12-04T19:43:04.662Z,13.27
2017-12-04T19:45:32.944Z,11.13
2017-12-04T19:48:01.315Z,12.00
2017-12-04T19:50:29.572Z,11.53
2017-12-04T19:52:57.830Z,12.00
2017-12-04T19:55:26.843Z,14.87
2017-12-04T19:57:55.129Z,12.93
2017-12-04T20:00:25.322Z,12.20
2017-12-04T20:02:54.362Z,12.20
2017-12-04T20:05:22.637Z,12.50
2017-12-04T20:07:50.934Z,12.77
2017-12-04T20:10:19.198Z,12.97
2017-12-04T20:12:47.524Z,14.80
2017-12-04T20:15:15.783Z,15.90
2017-12-04T20:17:44.047Z,14.20
2017-12-04T20:20:12.302Z,14.07
2017-12-04T20:22:40.572Z,14.10
2017-12-04T20:25:09.608Z,12.83
2017-12-04T20:27:37.938Z,13.83
2017-12-04T20:30:06.995Z,14.13
2017-12-04T20:32:35.267Z,12.80
2017-12-04T20:35:03.558Z,15.50
2017-12-04T20:37:31.832Z,13.50
2017-12-04T20:40:00.140Z,13.30
2017-12-04T20:42:28.510Z,15.60
2017-12-04T20:44:56.792Z,14.30
2017-12-04T20:47:25.055Z,13.90
2017-12-04T20:49:53.315Z,13.30
2017-12-04T20:52:21.568Z,14.20
2017-12-04T20:54:50.608Z,13.27
2017-12-04T20:57:18.905Z,15.43
2017-12-04T20:59:47.165Z,14.77
2017-12-04T21:02:15.451Z,13.80
2017-12-04T21:04:44.103Z,13.83
2017-12-04T21:07:13.280Z,15.90
2017-12-04T21:09:53.342Z,15.37
2017-12-04T21:12:21.587Z,14.10
2017-12-04T21:15:01.896Z,14.20
2017-12-04T21:17:35.017Z,14.23
2017-12-04T21:20:03.297Z,13.73
2017-12-04T21:22:31.658Z,13.90
2017-12-04T21:25:00.027Z,15.68
2017-12-04T21:27:28.258Z,15.80
2017-12-04T21:29:56.557Z,15.10
2017-12-04T21:32:24.851Z,14.90
2017-12-04T21:34:53.206Z,16.20
2017-12-04T21:37:21.547Z,15.07
2017-12-04T21:39:49.883Z,14.53
2017-12-04T21:42:18.150Z,15.10
2017-12-04T21:44:46.494Z,15.30
2017-12-04T21:47:14.851Z,15.40
2017-12-04T21:49:43.193Z,16.30
2017-12-04T21:52:11.463Z,15.43
2017-12-04T21:54:39.804Z,16.33
2017-12-04T21:57:08.829Z,14.67
2017-12-04T21:59:37.962Z,15.90
2017-12-04T22:02:06.211Z,16.00
2017-12-04T22:04:34.527Z,14.40
2017-12-04T22:07:02.807Z,15.03
2017-12-04T22:09:31.604Z,15.20
2017-12-04T22:11:59.854Z,15.40
2017-12-04T22:14:28.179Z,14.77
2017-12-04T22:16:56.544Z,15.27
2017-12-04T22:19:24.884Z,15.33
2017-12-04T22:21:53.204Z,14.70
2017-12-04T22:24:21.930Z,15.97
2017-12-04T22:26:50.195Z,15.20
2017-12-04T22:29:19.059Z,16.10
2017-12-04T22:31:48.267Z,16.27
2017-12-04T22:34:16.563Z,14.90
2017-12-04T22:36:44.948Z,15.15
2017-12-04T22:39:13.215Z,15.48
2017-12-04T22:41:41.504Z,14.20
2017-12-04T22:44:09.783Z,15.43
2017-12-04T22:46:38.180Z,16.30
2017-12-04T22:49:06.542Z,16.37
2017-12-04T22:51:34.815Z,15.63
2017-12-04T22:54:03.090Z,16.57
2017-12-04T22:56:31.359Z,14.93
2017-12-04T22:59:00.254Z,14.20
2017-12-04T23:01:29.411Z,15.80
2017-12-04T23:03:57.758Z,14.17
2017-12-04T23:06:26.041Z,15.20
2017-12-04T23:08:54.324Z,15.13
2017-12-04T23:11:22.595Z,16.07
2017-12-04T23:13:50.849Z,15.10
2017-12-04T23:16:19.139Z,16.33
2017-12-04T23:18:47.390Z,16.03
2017-12-04T23:21:15.679Z,16.87
2017-12-04T23:23:44.168Z,15.30
2017-12-04T23:26:13.192Z,17.00
2017-12-04T23:28:41.442Z,17.30
2017-12-04T23:31:10.466Z,17.40
2017-12-04T23:33:38.745Z,16.57
2017-12-04T23:36:07.015Z,16.97
2017-12-04T23:38:35.263Z,16.77
2017-12-04T23:41:04.320Z,14.83
2017-12-04T23:43:32.566Z,15.67
2017-12-04T23:46:01.694Z,15.37
2017-12-04T23:48:30.092Z,16.23
2017-12-04T23:50:58.504Z,16.00
2017-12-04T23:53:26.781Z,15.30
2017-12-04T23:55:55.076Z,15.70
2017-12-04T23:58:23.309Z,16.67
